Wetterstation Vordersexau
Wetterdaten: Woche 21.04.14 - 27.04.14 (KW17)
Datum Zeit Temp. A. Feuchte A. Luftdruck Regen Wind Richtung Taupunkt Windchill Windben
21.04.2014 00:00 8,3 C 79 % 975,3 hPa 0,0 l/m 0,0 km/h O-NO 4,9 C 8,3 C 0,0 km/h
21.04.2014 01:00 7,4 C 82 % 975,0 hPa 0,0 l/m 0,0 km/h SO 4,5 C 7,4 C 0,0 km/h
21.04.2014 02:00 7,3 C 82 % 974,8 hPa 0,0 l/m 0,0 km/h NO 4,4 C 7,3 C 0,0 km/h
21.04.2014 03:00 6,4 C 83 % 974,9 hPa 0,0 l/m 0,0 km/h NW 3,7 C 6,4 C 0,0 km/h
21.04.2014 04:00 6,3 C 83 % 974,6 hPa 0,0 l/m 0,0 km/h O-NO 3,6 C 6,3 C 0,0 km/h
21.04.2014 05:00 6,7 C 83 % 974,5 hPa 0,0 l/m 0,0 km/h O-NO 4,0 C 6,7 C 0,0 km/h
21.04.2014 06:00 7,1 C 83 % 974,5 hPa 0,0 l/m 0,0 km/h O-NO 4,4 C 7,1 C 0,0 km/h
21.04.2014 07:00 7,8 C 83 % 974,8 hPa 0,0 l/m 0,0 km/h NO 5,1 C 7,8 C 0,0 km/h
21.04.2014 08:00 10,4 C 83 % 974,9 hPa 0,0 l/m 0,0 km/h W-SW 7,6 C 10,4 C 0,0 km/h
21.04.2014 09:00 12,1 C 79 % 975,1 hPa 0,0 l/m 2,6 km/h W 8,6 C 12,1 C 1,4 km/h
21.04.2014 10:00 11,7 C 78 % 975,4 hPa 0,0 l/m 1,9 km/h W-NW 8,0 C 11,7 C 1,1 km/h
21.04.2014 11:00 12,6 C 79 % 975,6 hPa 0,0 l/m 8,4 km/h W-SW 9,1 C 11,3 C 4,7 km/h
21.04.2014 12:00 13,2 C 78 % 975,5 hPa 0,0 l/m 5,2 km/h S-SW 9,4 C 13,2 C 2,9 km/h
21.04.2014 13:00 14,1 C 79 % 975,5 hPa 0,0 l/m 0,0 km/h W 10,5 C 14,1 C 0,0 km/h
21.04.2014 14:00 16,6 C 72 % 975,5 hPa 0,0 l/m 1,3 km/h W-SW 11,5 C 16,6 C 0,7 km/h
21.04.2014 15:00 16,2 C 70 % 975,5 hPa 0,0 l/m 9,7 km/h SW 10,7 C 14,6 C 5,4 km/h
21.04.2014 16:00 16,5 C 67 % 975,3 hPa 0,0 l/m 5,2 km/h SW 10,4 C 16,5 C 2,9 km/h
21.04.2014 17:00 15,0 C 65 % 975,5 hPa 0,0 l/m 16,2 km/h SW 8,5 C 10,8 C 9,0 km/h
21.04.2014 18:00 14,4 C 71 % 975,7 hPa 0,0 l/m 0,0 km/h S 9,2 C 14,4 C 0,0 km/h
21.04.2014 19:00 13,8 C 73 % 975,7 hPa 0,0 l/m 0,0 km/h S-SO 9,0 C 13,8 C 0,0 km/h
21.04.2014 20:00 12,1 C 78 % 976,2 hPa 0,0 l/m 0,0 km/h S-SO 8,4 C 12,1 C 0,0 km/h
21.04.2014 21:00 10,7 C 80 % 977,1 hPa 0,0 l/m 0,0 km/h N-NO 7,4 C 10,7 C 0,0 km/h
21.04.2014 22:00 8,6 C 83 % 977,5 hPa 0,0 l/m 0,0 km/h NO 5,9 C 8,6 C 0,0 km/h
21.04.2014 23:00 8,4 C 83 % 978,0 hPa 0,0 l/m 0,0 km/h O-SO 5,7 C 8,4 C 0,0 km/h
22.04.2014 00:00 8,9 C 83 % 978,6 hPa 0,0 l/m 0,0 km/h O-SO 6,2 C 8,9 C 0,0 km/h
22.04.2014 01:00 8,7 C 83 % 978,7 hPa 0,0 l/m 0,0 km/h SO 6,0 C 8,7 C 0,0 km/h
22.04.2014 02:00 8,9 C 83 % 978,9 hPa 0,0 l/m 0,0 km/h SO 6,2 C 8,9 C 0,0 km/h
22.04.2014 03:00 8,9 C 82 % 979,3 hPa 0,2 l/m 0,0 km/h O-SO 6,0 C 8,9 C 0,0 km/h
22.04.2014 04:00 8,3 C 82 % 979,5 hPa 0,0 l/m 0,0 km/h SO 5,4 C 8,3 C 0,0 km/h
22.04.2014 05:00 7,6 C 82 % 979,8 hPa 0,0 l/m 0,0 km/h SO 4,7 C 7,6 C 0,0 km/h
22.04.2014 06:00 7,1 C 81 % 980,2 hPa 0,0 l/m 0,0 km/h SO 4,1 C 7,1 C 0,0 km/h
22.04.2014 07:00 8,5 C 79 % 981,0 hPa 0,0 l/m 0,0 km/h O-SO 5,1 C 8,5 C 0,0 km/h
22.04.2014 08:00 9,9 C 76 % 981,6 hPa 0,0 l/m 0,0 km/h O 5,9 C 9,9 C 0,0 km/h
22.04.2014 09:00 20,9 C 65 % 982,2 hPa 0,0 l/m 0,0 km/h N-NO 14,1 C 20,9 C 0,0 km/h
22.04.2014 10:00 21,9 C 55 % 982,6 hPa 0,0 l/m 0,0 km/h S 12,4 C 21,9 C 0,0 km/h
22.04.2014 11:00 22,3 C 51 % 983,2 hPa 0,0 l/m 22,7 km/h W 11,7 C 18,8 C 12,6 km/h
22.04.2014 12:00 22,4 C 52 % 983,1 hPa 0,0 l/m 1,9 km/h W 12,1 C 22,4 C 1,1 km/h
22.04.2014 13:00 23,9 C 45 % 983,1 hPa 0,0 l/m 0,6 km/h SO 11,2 C 23,9 C 0,4 km/h
22.04.2014 14:00 24,3 C 43 % 982,7 hPa 0,0 l/m 0,0 km/h N-NO 10,9 C 24,3 C 0,0 km/h
22.04.2014 15:00 24,4 C 44 % 983,0 hPa 0,0 l/m 0,0 km/h S-SO 11,3 C 24,4 C 0,0 km/h
22.04.2014 16:00 27,8 C 36 % 983,0 hPa 0,0 l/m 8,4 km/h NW 11,3 C 27,5 C 4,7 km/h
22.04.2014 17:00 26,3 C 41 % 983,2 hPa 0,0 l/m 3,2 km/h W 12,0 C 26,3 C 1,8 km/h
22.04.2014 18:00 23,6 C 40 % 983,4 hPa 0,0 l/m 33,0 km/h NW 9,2 C 19,5 C 18,4 km/h
22.04.2014 19:00 22,8 C 40 % 983,7 hPa 0,0 l/m 0,0 km/h N-NO 8,5 C 22,8 C 0,0 km/h
22.04.2014 20:00 16,2 C 55 % 984,6 hPa 0,0 l/m 0,0 km/h O-SO 7,2 C 16,2 C 0,0 km/h
22.04.2014 21:00 12,5 C 67 % 985,1 hPa 0,0 l/m 0,0 km/h NO 6,5 C 12,5 C 0,0 km/h
22.04.2014 22:00 10,4 C 72 % 985,9 hPa 0,0 l/m 0,0 km/h O-SO 5,6 C 10,4 C 0,0 km/h
22.04.2014 23:00 8,9 C 77 % 986,6 hPa 0,0 l/m 0,0 km/h SO 5,1 C 8,9 C 0,0 km/h
23.04.2014 00:00 9,3 C 80 % 987,1 hPa 0,0 l/m 0,0 km/h O-NO 6,0 C 9,3 C 0,0 km/h
23.04.2014 01:00 9,9 C 80 % 987,4 hPa 0,0 l/m 0,0 km/h O-SO 6,6 C 9,9 C 0,0 km/h
23.04.2014 02:00 8,6 C 80 % 987,8 hPa 0,0 l/m 0,0 km/h SO 5,3 C 8,6 C 0,0 km/h
23.04.2014 03:00 7,9 C 82 % 988,1 hPa 0,0 l/m 0,0 km/h NO 5,0 C 7,9 C 0,0 km/h
23.04.2014 04:00 7,6 C 83 % 988,5 hPa 0,0 l/m 0,0 km/h N-NO 4,9 C 7,6 C 0,0 km/h
23.04.2014 05:00 6,7 C 83 % 988,9 hPa 0,0 l/m 0,0 km/h O-SO 4,0 C 6,7 C 0,0 km/h
23.04.2014 06:00 5,9 C 83 % 989,1 hPa 0,0 l/m 0,0 km/h SO 3,2 C 5,9 C 0,0 km/h
23.04.2014 07:00 7,4 C 82 % 989,4 hPa 0,0 l/m 0,0 km/h SO 4,5 C 7,4 C 0,0 km/h
23.04.2014 08:00 10,7 C 82 % 989,6 hPa 0,0 l/m 0,0 km/h SO 7,8 C 10,7 C 0,0 km/h
23.04.2014 09:00 20,4 C 63 % 989,5 hPa 0,0 l/m 0,0 km/h S-SW 13,1 C 20,4 C 0,0 km/h
23.04.2014 10:00 23,0 C 51 % 989,7 hPa 0,0 l/m 2,6 km/h N-NO 12,3 C 23,0 C 1,4 km/h
23.04.2014 11:00 24,0 C 47 % 989,6 hPa 0,0 l/m 0,0 km/h O 12,0 C 24,0 C 0,0 km/h
23.04.2014 12:00 23,9 C 52 % 989,0 hPa 0,0 l/m 0,0 km/h S 13,4 C 23,9 C 0,0 km/h
23.04.2014 13:00 22,6 C 50 % 989,1 hPa 0,0 l/m 0,0 km/h SO 11,6 C 22,6 C 0,0 km/h
23.04.2014 14:00 17,9 C 66 % 989,1 hPa 0,0 l/m 8,4 km/h SO 11,5 C 17,0 C 4,7 km/h
23.04.2014 15:00 20,9 C 52 % 988,8 hPa 0,0 l/m 0,0 km/h W-SW 10,7 C 20,9 C 0,0 km/h
23.04.2014 16:00 25,3 C 46 % 987,9 hPa 0,0 l/m 3,9 km/h N-NO 12,8 C 25,3 C 2,2 km/h
23.04.2014 17:00 30,4 C 33 % 987,4 hPa 0,0 l/m 1,9 km/h O 12,3 C 30,4 C 1,1 km/h
23.04.2014 18:00 27,9 C 35 % 987,3 hPa 0,0 l/m 15,6 km/h O-SO 11,0 C 26,8 C 8,6 km/h
23.04.2014 19:00 24,6 C 39 % 987,4 hPa 0,0 l/m 0,0 km/h O-NO 9,7 C 24,6 C 0,0 km/h
23.04.2014 20:00 17,3 C 51 % 987,9 hPa 0,0 l/m 0,0 km/h SO 7,1 C 17,3 C 0,0 km/h
23.04.2014 21:00 12,7 C 69 % 988,5 hPa 0,0 l/m 0,0 km/h NO 7,2 C 12,7 C 0,0 km/h
23.04.2014 22:00 11,4 C 77 % 989,0 hPa 0,0 l/m 0,0 km/h O-SO 7,5 C 11,4 C 0,0 km/h
23.04.2014 23:00 10,5 C 79 % 989,1 hPa 0,0 l/m 0,0 km/h SW 7,0 C 10,5 C 0,0 km/h
24.04.2014 00:00 10,7 C 81 % 989,9 hPa 0,0 l/m 0,0 km/h N-NO 7,6 C 10,7 C 0,0 km/h
24.04.2014 01:00 11,0 C 81 % 990,1 hPa 0,0 l/m 0,0 km/h NO 7,9 C 11,0 C 0,0 km/h
24.04.2014 02:00 10,8 C 82 % 990,0 hPa 0,0 l/m 0,0 km/h SO 7,9 C 10,8 C 0,0 km/h
24.04.2014 03:00 9,7 C 82 % 989,8 hPa 0,0 l/m 0,0 km/h O 6,8 C 9,7 C 0,0 km/h
24.04.2014 04:00 9,3 C 83 % 989,5 hPa 0,0 l/m 0,0 km/h O-SO 6,6 C 9,3 C 0,0 km/h
24.04.2014 05:00 9,6 C 83 % 989,2 hPa 0,0 l/m 0,0 km/h S-SO 6,9 C 9,6 C 0,0 km/h
24.04.2014 06:00 9,3 C 83 % 988,9 hPa 0,0 l/m 0,0 km/h O-SO 6,6 C 9,3 C 0,0 km/h
24.04.2014 07:00 9,9 C 83 % 988,8 hPa 0,0 l/m 0,0 km/h SO 7,2 C 9,9 C 0,0 km/h
24.04.2014 08:00 14,1 C 81 % 988,9 hPa 0,0 l/m 0,0 km/h SW 10,9 C 14,1 C 0,0 km/h
24.04.2014 09:00 20,3 C 62 % 989,1 hPa 0,0 l/m 0,0 km/h S 12,8 C 20,3 C 0,0 km/h
24.04.2014 10:00 22,9 C 55 % 989,0 hPa 0,0 l/m 1,3 km/h N 13,4 C 22,9 C 0,7 km/h
24.04.2014 11:00 23,9 C 53 % 988,7 hPa 0,0 l/m 0,0 km/h W 13,7 C 23,9 C 0,0 km/h
24.04.2014 12:00 25,2 C 50 % 987,9 hPa 0,0 l/m 1,9 km/h S-SW 14,0 C 25,2 C 1,1 km/h
24.04.2014 13:00 26,1 C 50 % 986,7 hPa 0,0 l/m 0,0 km/h W 14,8 C 26,1 C 0,0 km/h
24.04.2014 14:00 26,4 C 47 % 985,7 hPa 0,0 l/m 1,9 km/h NW 14,2 C 26,4 C 1,1 km/h
24.04.2014 15:00 28,9 C 40 % 984,9 hPa 0,0 l/m 0,0 km/h O 13,9 C 28,9 C 0,0 km/h
24.04.2014 16:00 28,6 C 31 % 984,1 hPa 0,0 l/m 0,0 km/h O-NO 9,8 C 28,6 C 0,0 km/h
24.04.2014 17:00 29,2 C 29 % 983,5 hPa 0,0 l/m 0,0 km/h NO 9,3 C 29,2 C 0,0 km/h
24.04.2014 18:00 31,7 C 27 % 983,0 hPa 0,0 l/m 0,0 km/h O 10,4 C 31,7 C 0,0 km/h
24.04.2014 19:00 21,3 C 39 % 982,8 hPa 0,0 l/m 0,0 km/h SO 6,8 C 21,3 C 0,0 km/h
24.04.2014 20:00 17,6 C 49 % 982,7 hPa 0,0 l/m 0,0 km/h S-SW 6,8 C 17,6 C 0,0 km/h
24.04.2014 21:00 13,0 C 63 % 982,5 hPa 0,0 l/m 0,0 km/h SO 6,1 C 13,0 C 0,0 km/h
24.04.2014 22:00 12,9 C 67 % 982,1 hPa 0,0 l/m 0,7 km/h N 6,9 C 12,9 C 0,7 km/h
24.04.2014 23:00 12,3 C 68 % 981,8 hPa 0,0 l/m 0,0 km/h SO 6,6 C 12,3 C 0,0 km/h
25.04.2014 00:00 12,9 C 66 % 981,5 hPa 0,0 l/m 0,0 km/h SO 6,7 C 12,9 C 0,0 km/h
25.04.2014 01:00 15,2 C 59 % 981,1 hPa 0,0 l/m 1,4 km/h SW 7,2 C 15,2 C 1,4 km/h
25.04.2014 02:00 11,9 C 64 % 980,6 hPa 0,0 l/m 0,7 km/h O-SO 5,3 C 11,9 C 0,7 km/h
25.04.2014 03:00 10,5 C 69 % 980,1 hPa 0,0 l/m 0,0 km/h O-SO 5,1 C 10,5 C 0,0 km/h
25.04.2014 04:00 9,2 C 74 % 980,3 hPa 0,0 l/m 0,0 km/h W 4,8 C 9,2 C 0,0 km/h
25.04.2014 05:00 8,1 C 80 % 980,1 hPa 0,0 l/m 0,0 km/h SO 4,9 C 8,1 C 0,0 km/h
25.04.2014 06:00 8,7 C 79 % 980,1 hPa 0,0 l/m 0,0 km/h O-SO 5,3 C 8,7 C 0,0 km/h
25.04.2014 07:00 9,6 C 80 % 980,0 hPa 0,0 l/m 0,0 km/h O-NO 6,3 C 9,6 C 0,0 km/h
25.04.2014 08:00 14,4 C 74 % 980,6 hPa 0,0 l/m 0,0 km/h W-NW 9,8 C 14,4 C 0,0 km/h
25.04.2014 09:00 16,6 C 64 % 981,4 hPa 0,0 l/m 0,0 km/h N-NO 9,8 C 16,6 C 0,0 km/h
25.04.2014 10:00 19,5 C 60 % 981,5 hPa 0,0 l/m 0,0 km/h SO 11,5 C 19,5 C 0,0 km/h
25.04.2014 11:00 24,1 C 49 % 981,5 hPa 0,0 l/m 3,9 km/h S 12,7 C 24,1 C 2,2 km/h
25.04.2014 12:00 26,5 C 39 % 981,3 hPa 0,0 l/m 7,8 km/h N 11,4 C 26,2 C 4,3 km/h
25.04.2014 13:00 27,2 C 37 % 981,1 hPa 0,0 l/m 11,0 km/h W 11,2 C 26,5 C 6,1 km/h
25.04.2014 14:00 25,6 C 38 % 980,9 hPa 0,0 l/m 5,2 km/h W-NW 10,2 C 25,6 C 2,9 km/h
25.04.2014 15:00 27,3 C 37 % 980,9 hPa 0,0 l/m 0,0 km/h N-NW 11,3 C 27,3 C 0,0 km/h
25.04.2014 16:00 29,6 C 33 % 980,4 hPa 0,0 l/m 0,0 km/h N-NO 11,6 C 29,6 C 0,0 km/h
25.04.2014 17:00 30,3 C 29 % 980,6 hPa 0,0 l/m 21,4 km/h N-NW 10,3 C 29,5 C 11,9 km/h
25.04.2014 18:00 22,8 C 42 % 980,6 hPa 0,0 l/m 4,5 km/h S-SO 9,2 C 22,8 C 2,5 km/h
25.04.2014 19:00 18,3 C 55 % 981,7 hPa 0,0 l/m 11,0 km/h SO 9,1 C 16,4 C 6,1 km/h
25.04.2014 20:00 13,1 C 79 % 983,4 hPa 1,1 l/m 11,7 km/h SW 9,5 C 10,2 C 6,5 km/h
25.04.2014 21:00 12,3 C 82 % 983,4 hPa 1,1 l/m 1,4 km/h O-SO 9,3 C 12,3 C 1,4 km/h
25.04.2014 22:00 12,1 C 82 % 983,8 hPa 0,6 l/m 0,0 km/h O-SO 9,1 C 12,1 C 0,0 km/h
25.04.2014 23:00 12,1 C 82 % 984,2 hPa 0,2 l/m 0,0 km/h N 9,1 C 12,1 C 0,0 km/h
26.04.2014 00:00 12,2 C 82 % 985,0 hPa 0,2 l/m 0,0 km/h S-SO 9,2 C 12,2 C 0,0 km/h
26.04.2014 01:00 11,9 C 82 % 984,9 hPa 0,2 l/m 0,0 km/h O-NO 8,9 C 11,9 C 0,0 km/h
26.04.2014 02:00 12,1 C 81 % 984,6 hPa 0,8 l/m 0,0 km/h O-NO 8,9 C 12,1 C 0,0 km/h
26.04.2014 03:00 12,1 C 80 % 984,9 hPa 0,6 l/m 0,0 km/h O-NO 8,8 C 12,1 C 0,0 km/h
26.04.2014 04:00 12,1 C 80 % 984,8 hPa 0,5 l/m 0,0 km/h O-NO 8,8 C 12,1 C 0,0 km/h
26.04.2014 05:00 11,8 C 80 % 984,5 hPa 0,3 l/m 0,0 km/h O-NO 8,5 C 11,8 C 0,0 km/h
26.04.2014 06:00 11,6 C 80 % 984,2 hPa 0,0 l/m 0,0 km/h SO 8,3 C 11,6 C 0,0 km/h
26.04.2014 07:00 11,8 C 80 % 984,2 hPa 0,0 l/m 0,0 km/h O-SO 8,5 C 11,8 C 0,0 km/h
26.04.2014 08:00 12,1 C 78 % 984,1 hPa 0,0 l/m 0,0 km/h O-SO 8,4 C 12,1 C 0,0 km/h
26.04.2014 09:00 13,4 C 78 % 984,1 hPa 0,0 l/m 0,0 km/h SO 9,6 C 13,4 C 0,0 km/h
26.04.2014 10:00 14,3 C 83 % 984,1 hPa 0,0 l/m 0,0 km/h W 11,5 C 14,3 C 0,0 km/h
26.04.2014 11:00 17,1 C 79 % 983,7 hPa 0,0 l/m 0,0 km/h S-SO 13,4 C 17,1 C 0,0 km/h
26.04.2014 12:00 23,4 C 60 % 983,4 hPa 0,0 l/m 0,0 km/h S-SW 15,2 C 23,4 C 0,0 km/h
26.04.2014 13:00 21,0 C 60 % 982,6 hPa 0,0 l/m 7,8 km/h W 12,9 C 20,5 C 4,3 km/h
26.04.2014 14:00 21,3 C 60 % 981,9 hPa 0,0 l/m 0,0 km/h W-SW 13,2 C 21,3 C 0,0 km/h
26.04.2014 15:00 20,4 C 59 % 981,1 hPa 0,0 l/m 2,6 km/h W 12,1 C 20,4 C 1,4 km/h
26.04.2014 16:00 20,9 C 60 % 980,2 hPa 0,0 l/m 0,0 km/h W 12,8 C 20,9 C 0,0 km/h
26.04.2014 17:00 26,4 C 49 % 979,7 hPa 0,0 l/m 0,0 km/h W-NW 14,8 C 26,4 C 0,0 km/h
26.04.2014 18:00 21,2 C 57 % 979,5 hPa 0,0 l/m 0,0 km/h W 12,3 C 21,2 C 0,0 km/h
26.04.2014 19:00 17,4 C 67 % 978,9 hPa 0,0 l/m 0,0 km/h W-SW 11,2 C 17,4 C 0,0 km/h
26.04.2014 20:00 14,8 C 76 % 979,0 hPa 0,0 l/m 0,0 km/h SW 10,6 C 14,8 C 0,0 km/h
26.04.2014 21:00 14,1 C 81 % 979,1 hPa 0,0 l/m 0,0 km/h W 10,9 C 14,1 C 0,0 km/h
26.04.2014 22:00 13,0 C 83 % 979,1 hPa 1,4 l/m 0,0 km/h N-NO 10,2 C 13,0 C 0,0 km/h
26.04.2014 23:00 12,4 C 82 % 979,3 hPa 0,6 l/m 0,0 km/h SW 9,4 C 12,4 C 0,0 km/h
27.04.2014 00:00 11,6 C 82 % 979,9 hPa 1,9 l/m 0,0 km/h S-SW 8,6 C 11,6 C 0,0 km/h
27.04.2014 01:00 11,4 C 79 % 980,1 hPa 1,9 l/m 3,2 km/h W-SW 7,9 C 11,4 C 3,2 km/h
27.04.2014 02:00 9,7 C 79 % 980,0 hPa 0,8 l/m 0,7 km/h S 6,2 C 9,7 C 0,7 km/h
27.04.2014 03:00 9,4 C 78 % 979,9 hPa 0,2 l/m 10,8 km/h SW 5,8 C 6,5 C 10,8 km/h
27.04.2014 04:00 9,2 C 78 % 980,0 hPa 0,3 l/m 0,0 km/h SW 5,6 C 9,2 C 0,0 km/h
27.04.2014 05:00 9,0 C 78 % 980,1 hPa 0,2 l/m 0,0 km/h S-SO 5,4 C 9,0 C 0,0 km/h
27.04.2014 06:00 8,9 C 78 % 980,0 hPa 0,3 l/m 0,0 km/h S-SW 5,3 C 8,9 C 0,0 km/h
27.04.2014 07:00 8,9 C 77 % 980,4 hPa 0,2 l/m 0,4 km/h S-SW 5,1 C 8,9 C 0,4 km/h
27.04.2014 08:00 9,1 C 76 % 980,5 hPa 0,2 l/m 0,0 km/h S-SO 5,1 C 9,1 C 0,0 km/h
27.04.2014 09:00 10,9 C 77 % 980,6 hPa 0,2 l/m 1,4 km/h W 7,0 C 10,9 C 1,4 km/h
27.04.2014 10:00 10,9 C 83 % 980,7 hPa 0,0 l/m 0,0 km/h W 8,1 C 10,9 C 0,0 km/h
27.04.2014 11:00 12,6 C 84 % 980,4 hPa 0,0 l/m 0,0 km/h W 10,0 C 12,6 C 0,0 km/h
27.04.2014 12:00 12,5 C 84 % 980,4 hPa 0,2 l/m 3,9 km/h W 9,9 C 12,5 C 2,2 km/h
27.04.2014 13:00 14,2 C 80 % 980,5 hPa 0,0 l/m 3,2 km/h SW 10,8 C 14,2 C 1,8 km/h
27.04.2014 14:00 18,3 C 67 % 980,0 hPa 0,0 l/m 7,8 km/h S 12,1 C 17,7 C 4,3 km/h
27.04.2014 15:00 17,8 C 61 % 979,6 hPa 0,0 l/m 0,0 km/h W-SW 10,2 C 17,8 C 0,0 km/h
27.04.2014 16:00 20,7 C 50 % 979,2 hPa 0,0 l/m 20,1 km/h SW 9,9 C 17,1 C 11,2 km/h
27.04.2014 17:00 21,1 C 46 % 979,3 hPa 0,0 l/m 21,4 km/h W-SW 9,0 C 17,4 C 11,9 km/h
27.04.2014 18:00 16,1 C 55 % 979,2 hPa 0,0 l/m 0,0 km/h SO 7,1 C 16,1 C 0,0 km/h
27.04.2014 19:00 14,5 C 61 % 979,5 hPa 0,0 l/m 1,9 km/h SO 7,1 C 14,5 C 1,1 km/h
27.04.2014 20:00 12,2 C 70 % 979,9 hPa 0,0 l/m 0,0 km/h SO 6,9 C 12,2 C 0,0 km/h
27.04.2014 21:00 10,8 C 77 % 980,4 hPa 0,0 l/m 0,0 km/h NO 6,9 C 10,8 C 0,0 km/h
27.04.2014 22:00 10,1 C 80 % 980,2 hPa 0,0 l/m 0,0 km/h SO 6,8 C 10,1 C 0,0 km/h
27.04.2014 23:00 9,9 C 82 % 980,4 hPa 0,0 l/m 0,7 km/h SO 7,0 C 9,9 C 0,7 km/h
Min-Datum _ 23.04.14 24.04.14 21.04.14 - 21.04.14 - 23.04.14 23.04.14 21.04.14
_ Min-Zeit 06:19 18:19 05:19 - 00:19 - 06:19 06:19 00:19
Minimum _ 5,9 C 27 % 974,5 hPa - 0,0 km/h - 3,2 C 5,9 C 0,0 km/h
Max-Datum _ 24.04.14 27.04.14 24.04.14 27.04.14 22.04.14 - 26.04.14 24.04.14 22.04.14
_ Max-Zeit 18:19 11:19 01:19 00:19 18:19 - 12:19 18:19 18:19
Maximum _ 31,7 C 84 % 990,1 hPa 1,9 l/m 33,0 km/h
NW
- 15,2 C 31,7 C 18,4 km/h
NW
Durchschnitt _ 15,3 C 68 % 982,4 hPa #13,7 l/m 1,9 km/h SO 8,7 C 15,1 C 1,1 km/h
www.sexauwetter.de